Aérodrome :
LOGIN :

S'inscrire | Disclaimer

   EN    FR    IT 

 










Légende :    VFR   VFR Marginal   IFR   IFR Intensif   IFR Très Intensif
Visi : 
Plafond : 
>= 8 km
>= 3000ft
5 à 8 km
1000 à 3000 ft
1500m à 5 km
500 à 1000 ft
800 à 1500m
200 à 500 ft
< 800m
< 200 ft
Symboles :   Orages  Brouillard  Fortes neiges  Fortes précipitations  Vent > 20 kt
SIGMETs :   Divers  Orages  Givrage  Turbulence  Onde Orograph.  Cendres Volcan.






- Altitude de l'aérodrome : 7 ft
- Code IATA : POW


LJPZ - Portoroz

DERNIER METAR :
  • 051900Z 13005KT 9999 BKN043 07/03 Q1026

METARs EXPIRÉS :
  • 051830Z 13005KT 9999 BKN043 07/03 Q1026
  • 051800Z 13005KT 9999 BKN043 07/04 Q1026
  • 051730Z 11005KT 9999 BKN043 07/04 Q1026
  • 051700Z 12004KT 9999 BKN043 08/04 Q1026
  • 051630Z 13004KT 9999 BKN041 08/04 Q1026

TAF TAF LJPZ
Valide du 05 à 18h jusqu'au 06 à 03h UTC


051700Z 0518/0603 12005KT 9999 BKN040



MET'MAP, la Météo Aéronautique d'un coup d'oeil ! - Copyright ORBIFLY Décembre 2007 - Disclaimer

ORBIFLY MET'MAP TEAM :

Programmation & Développement : Alexandra Zaïnal
Sur une idée originale de : Baudouin d'Aumeries
Assistance à la programmation : Marc-Olivier Méhu
Soutien technique & logistique : Manuel Goepfert

Contact : metmap@orbifly.com




SOURCES & CREDITS :

   NOAA